sensor_id;sensor_type;location;lat;lon;timestamp;temperature;humidity
52555;DHT22;38455;52.710;6.502;2022-10-01T00:00:54;12.00;99.90
52555;DHT22;38455;52.710;6.502;2022-10-01T00:03:23;12.00;99.90
52555;DHT22;38455;52.710;6.502;2022-10-01T00:06:00;12.00;99.90
52555;DHT22;38455;52.710;6.502;2022-10-01T00:08:27;12.00;99.90
52555;DHT22;38455;52.710;6.502;2022-10-01T00:10:53;11.90;99.90
52555;DHT22;38455;52.710;6.502;2022-10-01T00:13:19;11.90;99.90
52555;DHT22;38455;52.710;6.502;2022-10-01T00:15:45;11.90;99.90
52555;DHT22;38455;52.710;6.502;2022-10-01T00:18:11;11.80;99.90
52555;DHT22;38455;52.710;6.502;2022-10-01T00:20:40;11.80;99.90
52555;DHT22;38455;52.710;6.502;2022-10-01T00:23:08;11.80;99.90
52555;DHT22;38455;52.710;6.502;2022-10-01T00:25:34;11.80;99.90
52555;DHT22;38455;52.710;6.502;2022-10-01T00:28:00;11.70;99.90
52555;DHT22;38455;52.710;6.502;2022-10-01T00:30:26;11.70;99.90
52555;DHT22;38455;52.710;6.502;2022-10-01T00:32:55;11.70;99.90
52555;DHT22;38455;52.710;6.502;2022-10-01T00:35:21;11.70;99.90
52555;DHT22;38455;52.710;6.502;2022-10-01T00:37:47;11.70;99.90
52555;DHT22;38455;52.710;6.502;2022-10-01T00:40:15;11.60;99.90
52555;DHT22;38455;52.710;6.502;2022-10-01T00:42:41;11.60;99.90
52555;DHT22;38455;52.710;6.502;2022-10-01T00:45:11;11.60;99.90
52555;DHT22;38455;52.710;6.502;2022-10-01T00:47:43;11.60;99.90
52555;DHT22;38455;52.710;6.502;2022-10-01T00:50:12;11.60;99.90
52555;DHT22;38455;52.710;6.502;2022-10-01T00:52:42;11.50;99.90
52555;DHT22;38455;52.710;6.502;2022-10-01T00:55:15;11.50;99.90
52555;DHT22;38455;52.710;6.502;2022-10-01T00:57:44;11.50;99.90
52555;DHT22;38455;52.710;6.502;2022-10-01T01:00:11;11.50;99.90
52555;DHT22;38455;52.710;6.502;2022-10-01T01:02:38;11.50;99.90
52555;DHT22;38455;52.710;6.502;2022-10-01T01:05:04;11.50;99.90
52555;DHT22;38455;52.710;6.502;2022-10-01T01:07:30;11.40;99.90
52555;DHT22;38455;52.710;6.502;2022-10-01T01:09:58;11.50;99.90
52555;DHT22;38455;52.710;6.502;2022-10-01T01:15:30;11.40;99.90
52555;DHT22;38455;52.710;6.502;2022-10-01T01:18:16;11.40;99.90
52555;DHT22;38455;52.710;6.502;2022-10-01T01:26:04;11.40;99.90
52555;DHT22;38455;52.710;6.502;2022-10-01T01:28:40;11.40;99.90
52555;DHT22;38455;52.710;6.502;2022-10-01T01:31:15;11.30;99.90
52555;DHT22;38455;52.710;6.502;2022-10-01T01:33:45;11.30;99.90
52555;DHT22;38455;52.710;6.502;2022-10-01T01:36:15;11.30;99.90
52555;DHT22;38455;52.710;6.502;2022-10-01T01:38:56;11.30;99.90
52555;DHT22;38455;52.710;6.502;2022-10-01T01:41:26;11.30;99.90
52555;DHT22;38455;52.710;6.502;2022-10-01T01:43:56;11.30;99.90
52555;DHT22;38455;52.710;6.502;2022-10-01T01:46:26;11.20;99.90
52555;DHT22;38455;52.710;6.502;2022-10-01T01:48:59;11.30;99.90
52555;DHT22;38455;52.710;6.502;2022-10-01T01:51:37;11.30;99.90
52555;DHT22;38455;52.710;6.502;2022-10-01T01:54:04;11.30;99.90
52555;DHT22;38455;52.710;6.502;2022-10-01T01:56:30;11.30;99.90
52555;DHT22;38455;52.710;6.502;2022-10-01T01:58:57;11.30;99.90
52555;DHT22;38455;52.710;6.502;2022-10-01T02:04:01;11.30;99.90
52555;DHT22;38455;52.710;6.502;2022-10-01T02:15:09;11.20;99.90
52555;DHT22;38455;52.710;6.502;2022-10-01T02:17:52;11.20;99.90
52555;DHT22;38455;52.710;6.502;2022-10-01T02:20:28;11.20;99.90
52555;DHT22;38455;52.710;6.502;2022-10-01T02:22:59;11.30;99.90
52555;DHT22;38455;52.710;6.502;2022-10-01T02:25:32;11.20;99.90
52555;DHT22;38455;52.710;6.502;2022-10-01T02:28:13;11.20;99.90
52555;DHT22;38455;52.710;6.502;2022-10-01T02:30:41;11.30;99.90
52555;DHT22;38455;52.710;6.502;2022-10-01T02:33:10;11.30;99.90
52555;DHT22;38455;52.710;6.502;2022-10-01T02:35:40;11.30;99.90
52555;DHT22;38455;52.710;6.502;2022-10-01T02:38:08;11.30;99.90
52555;DHT22;38455;52.710;6.502;2022-10-01T02:40:38;11.30;99.90
52555;DHT22;38455;52.710;6.502;2022-10-01T02:43:13;11.30;99.90
52555;DHT22;38455;52.710;6.502;2022-10-01T02:45:40;11.40;99.90
52555;DHT22;38455;52.710;6.502;2022-10-01T02:48:10;11.40;99.90
52555;DHT22;38455;52.710;6.502;2022-10-01T02:50:51;11.30;99.90
52555;DHT22;38455;52.710;6.502;2022-10-01T02:53:41;11.40;99.90
52555;DHT22;38455;52.710;6.502;2022-10-01T02:56:09;11.40;99.90
52555;DHT22;38455;52.710;6.502;2022-10-01T02:58:36;11.30;99.90
52555;DHT22;38455;52.710;6.502;2022-10-01T03:01:02;11.40;99.90
52555;DHT22;38455;52.710;6.502;2022-10-01T03:03:28;11.40;99.90
52555;DHT22;38455;52.710;6.502;2022-10-01T03:05:55;11.40;99.90
52555;DHT22;38455;52.710;6.502;2022-10-01T03:08:21;11.40;99.90
52555;DHT22;38455;52.710;6.502;2022-10-01T03:10:46;11.40;99.90
52555;DHT22;38455;52.710;6.502;2022-10-01T03:13:12;11.40;99.90
52555;DHT22;38455;52.710;6.502;2022-10-01T03:15:38;11.40;99.90
52555;DHT22;38455;52.710;6.502;2022-10-01T03:18:03;11.40;99.90
52555;DHT22;38455;52.710;6.502;2022-10-01T03:20:29;11.40;99.90
52555;DHT22;38455;52.710;6.502;2022-10-01T03:22:54;11.40;99.90
52555;DHT22;38455;52.710;6.502;2022-10-01T03:25:20;11.40;99.90
52555;DHT22;38455;52.710;6.502;2022-10-01T03:27:45;11.40;99.90
52555;DHT22;38455;52.710;6.502;2022-10-01T03:30:12;11.40;99.90
52555;DHT22;38455;52.710;6.502;2022-10-01T03:32:37;11.40;99.90
52555;DHT22;38455;52.710;6.502;2022-10-01T03:35:03;11.40;99.90
52555;DHT22;38455;52.710;6.502;2022-10-01T03:37:29;11.40;99.90
52555;DHT22;38455;52.710;6.502;2022-10-01T03:39:55;11.40;99.90
52555;DHT22;38455;52.710;6.502;2022-10-01T03:42:20;11.30;99.90
52555;DHT22;38455;52.710;6.502;2022-10-01T03:44:46;11.30;99.90
52555;DHT22;38455;52.710;6.502;2022-10-01T03:47:12;11.40;99.90
52555;DHT22;38455;52.710;6.502;2022-10-01T03:49:37;11.30;99.90
52555;DHT22;38455;52.710;6.502;2022-10-01T03:52:04;11.40;99.90
52555;DHT22;38455;52.710;6.502;2022-10-01T03:54:31;11.40;99.90
52555;DHT22;38455;52.710;6.502;2022-10-01T03:56:57;11.30;99.90
52555;DHT22;38455;52.710;6.502;2022-10-01T03:59:23;11.40;99.90
52555;DHT22;38455;52.710;6.502;2022-10-01T04:01:49;11.40;99.90
52555;DHT22;38455;52.710;6.502;2022-10-01T04:04:15;11.40;99.90
52555;DHT22;38455;52.710;6.502;2022-10-01T04:06:40;11.40;99.90
52555;DHT22;38455;52.710;6.502;2022-10-01T04:09:06;11.40;99.90
52555;DHT22;38455;52.710;6.502;2022-10-01T04:11:34;11.40;99.90
52555;DHT22;38455;52.710;6.502;2022-10-01T04:14:00;11.50;99.90
52555;DHT22;38455;52.710;6.502;2022-10-01T04:16:25;11.40;99.90
52555;DHT22;38455;52.710;6.502;2022-10-01T04:18:51;11.50;99.90
52555;DHT22;38455;52.710;6.502;2022-10-01T04:21:17;11.50;99.90
52555;DHT22;38455;52.710;6.502;2022-10-01T04:23:42;11.50;99.90
52555;DHT22;38455;52.710;6.502;2022-10-01T04:26:08;11.50;99.90
52555;DHT22;38455;52.710;6.502;2022-10-01T04:28:34;11.50;99.90
52555;DHT22;38455;52.710;6.502;2022-10-01T04:30:59;11.50;99.90
52555;DHT22;38455;52.710;6.502;2022-10-01T04:33:44;11.50;99.90
52555;DHT22;38455;52.710;6.502;2022-10-01T04:36:10;11.50;99.90
52555;DHT22;38455;52.710;6.502;2022-10-01T04:38:36;11.60;99.90
52555;DHT22;38455;52.710;6.502;2022-10-01T04:41:02;11.60;99.90
52555;DHT22;38455;52.710;6.502;2022-10-01T04:43:27;11.60;99.90
52555;DHT22;38455;52.710;6.502;2022-10-01T04:45:53;11.60;99.90
52555;DHT22;38455;52.710;6.502;2022-10-01T04:48:19;11.60;99.90
52555;DHT22;38455;52.710;6.502;2022-10-01T04:50:44;11.60;99.90
52555;DHT22;38455;52.710;6.502;2022-10-01T04:53:10;11.60;99.90
52555;DHT22;38455;52.710;6.502;2022-10-01T04:55:35;11.60;99.90
52555;DHT22;38455;52.710;6.502;2022-10-01T04:58:01;11.70;99.90
52555;DHT22;38455;52.710;6.502;2022-10-01T05:00:27;11.70;99.90
52555;DHT22;38455;52.710;6.502;2022-10-01T05:02:53;11.70;99.90
52555;DHT22;38455;52.710;6.502;2022-10-01T05:05:21;11.70;99.90
52555;DHT22;38455;52.710;6.502;2022-10-01T05:07:47;11.70;99.90
52555;DHT22;38455;52.710;6.502;2022-10-01T05:10:18;11.70;99.90
52555;DHT22;38455;52.710;6.502;2022-10-01T05:12:45;11.80;99.90
52555;DHT22;38455;52.710;6.502;2022-10-01T05:15:11;11.80;99.90
52555;DHT22;38455;52.710;6.502;2022-10-01T05:17:37;11.80;99.90
52555;DHT22;38455;52.710;6.502;2022-10-01T05:20:04;11.80;99.90
52555;DHT22;38455;52.710;6.502;2022-10-01T05:22:30;11.90;99.90
52555;DHT22;38455;52.710;6.502;2022-10-01T05:24:57;11.90;99.90
52555;DHT22;38455;52.710;6.502;2022-10-01T05:27:25;11.90;99.90
52555;DHT22;38455;52.710;6.502;2022-10-01T05:29:51;11.90;99.90
52555;DHT22;38455;52.710;6.502;2022-10-01T05:32:17;11.90;99.90
52555;DHT22;38455;52.710;6.502;2022-10-01T05:34:43;11.90;99.90
52555;DHT22;38455;52.710;6.502;2022-10-01T05:37:09;12.00;99.90
52555;DHT22;38455;52.710;6.502;2022-10-01T05:39:36;12.00;99.90
52555;DHT22;38455;52.710;6.502;2022-10-01T05:42:02;12.00;99.90
52555;DHT22;38455;52.710;6.502;2022-10-01T05:44:28;12.00;99.90
52555;DHT22;38455;52.710;6.502;2022-10-01T05:46:57;12.00;99.90
52555;DHT22;38455;52.710;6.502;2022-10-01T05:49:23;12.00;99.90
52555;DHT22;38455;52.710;6.502;2022-10-01T05:51:49;12.10;99.90
52555;DHT22;38455;52.710;6.502;2022-10-01T05:54:15;12.10;99.90
52555;DHT22;38455;52.710;6.502;2022-10-01T05:56:44;12.10;99.90
52555;DHT22;38455;52.710;6.502;2022-10-01T05:59:10;12.10;99.90
52555;DHT22;38455;52.710;6.502;2022-10-01T06:01:36;12.10;99.90
52555;DHT22;38455;52.710;6.502;2022-10-01T06:04:02;12.20;99.90
52555;DHT22;38455;52.710;6.502;2022-10-01T06:06:28;12.20;99.90
52555;DHT22;38455;52.710;6.502;2022-10-01T06:08:54;12.20;99.90
52555;DHT22;38455;52.710;6.502;2022-10-01T06:11:19;12.20;99.90
52555;DHT22;38455;52.710;6.502;2022-10-01T06:13:48;12.20;99.90
52555;DHT22;38455;52.710;6.502;2022-10-01T06:16:15;12.30;99.90
52555;DHT22;38455;52.710;6.502;2022-10-01T06:18:41;12.30;99.90
52555;DHT22;38455;52.710;6.502;2022-10-01T06:21:08;12.30;99.90
52555;DHT22;38455;52.710;6.502;2022-10-01T06:23:34;12.30;99.90
52555;DHT22;38455;52.710;6.502;2022-10-01T06:26:02;12.30;99.90
52555;DHT22;38455;52.710;6.502;2022-10-01T06:28:30;12.40;99.90
52555;DHT22;38455;52.710;6.502;2022-10-01T06:30:56;12.50;99.90
52555;DHT22;38455;52.710;6.502;2022-10-01T06:33:21;12.50;99.90
52555;DHT22;38455;52.710;6.502;2022-10-01T06:35:49;12.70;99.90
52555;DHT22;38455;52.710;6.502;2022-10-01T06:38:17;12.90;99.90
52555;DHT22;38455;52.710;6.502;2022-10-01T06:40:53;12.90;99.90
52555;DHT22;38455;52.710;6.502;2022-10-01T06:43:19;12.90;99.90
52555;DHT22;38455;52.710;6.502;2022-10-01T06:45:45;12.90;99.90
52555;DHT22;38455;52.710;6.502;2022-10-01T06:48:15;12.90;99.90
52555;DHT22;38455;52.710;6.502;2022-10-01T06:50:42;12.90;99.90
52555;DHT22;38455;52.710;6.502;2022-10-01T06:53:08;12.90;99.90
52555;DHT22;38455;52.710;6.502;2022-10-01T06:55:35;12.90;99.90
52555;DHT22;38455;52.710;6.502;2022-10-01T06:58:03;12.90;99.90
52555;DHT22;38455;52.710;6.502;2022-10-01T07:00:32;12.90;99.90
52555;DHT22;38455;52.710;6.502;2022-10-01T07:02:58;13.00;99.90
52555;DHT22;38455;52.710;6.502;2022-10-01T07:05:25;13.00;99.90
52555;DHT22;38455;52.710;6.502;2022-10-01T07:07:51;13.30;99.90
52555;DHT22;38455;52.710;6.502;2022-10-01T07:10:19;13.90;99.90
52555;DHT22;38455;52.710;6.502;2022-10-01T07:12:46;14.90;99.90
52555;DHT22;38455;52.710;6.502;2022-10-01T07:15:16;15.80;99.90
52555;DHT22;38455;52.710;6.502;2022-10-01T07:17:48;16.40;99.90
52555;DHT22;38455;52.710;6.502;2022-10-01T07:20:15;16.20;99.90
52555;DHT22;38455;52.710;6.502;2022-10-01T07:22:45;15.70;99.90
52555;DHT22;38455;52.710;6.502;2022-10-01T07:25:11;15.30;99.90
52555;DHT22;38455;52.710;6.502;2022-10-01T07:27:38;14.90;99.90
52555;DHT22;38455;52.710;6.502;2022-10-01T07:30:05;14.60;99.90
52555;DHT22;38455;52.710;6.502;2022-10-01T07:32:32;14.40;99.90
52555;DHT22;38455;52.710;6.502;2022-10-01T07:35:00;14.10;99.90
52555;DHT22;38455;52.710;6.502;2022-10-01T07:37:26;14.10;99.90
52555;DHT22;38455;52.710;6.502;2022-10-01T07:39:52;14.20;99.90
52555;DHT22;38455;52.710;6.502;2022-10-01T07:42:18;14.60;99.90
52555;DHT22;38455;52.710;6.502;2022-10-01T07:44:43;15.50;99.90
52555;DHT22;38455;52.710;6.502;2022-10-01T07:47:10;15.70;99.90
52555;DHT22;38455;52.710;6.502;2022-10-01T07:49:36;15.90;99.90
52555;DHT22;38455;52.710;6.502;2022-10-01T07:52:02;17.10;99.90
52555;DHT22;38455;52.710;6.502;2022-10-01T07:54:27;17.70;99.90
52555;DHT22;38455;52.710;6.502;2022-10-01T07:56:53;18.20;99.90
52555;DHT22;38455;52.710;6.502;2022-10-01T07:59:26;18.70;99.90
52555;DHT22;38455;52.710;6.502;2022-10-01T08:01:52;19.40;99.90
52555;DHT22;38455;52.710;6.502;2022-10-01T08:04:21;19.90;99.90
52555;DHT22;38455;52.710;6.502;2022-10-01T08:07:06;20.30;99.90
52555;DHT22;38455;52.710;6.502;2022-10-01T08:09:33;21.00;99.90
52555;DHT22;38455;52.710;6.502;2022-10-01T08:11:58;21.50;99.90
52555;DHT22;38455;52.710;6.502;2022-10-01T08:14:24;21.70;99.90
52555;DHT22;38455;52.710;6.502;2022-10-01T08:16:50;22.10;99.90
52555;DHT22;38455;52.710;6.502;2022-10-01T08:19:16;21.90;99.90
52555;DHT22;38455;52.710;6.502;2022-10-01T08:21:41;21.80;99.90
52555;DHT22;38455;52.710;6.502;2022-10-01T08:24:08;21.40;99.90
52555;DHT22;38455;52.710;6.502;2022-10-01T08:26:34;20.70;99.90
52555;DHT22;38455;52.710;6.502;2022-10-01T08:28:59;20.90;99.90
52555;DHT22;38455;52.710;6.502;2022-10-01T08:31:25;21.70;99.90
52555;DHT22;38455;52.710;6.502;2022-10-01T08:33:51;22.70;99.90
52555;DHT22;38455;52.710;6.502;2022-10-01T08:36:17;22.20;99.90
52555;DHT22;38455;52.710;6.502;2022-10-01T08:38:44;21.30;99.90
52555;DHT22;38455;52.710;6.502;2022-10-01T08:41:41;20.60;99.90
52555;DHT22;38455;52.710;6.502;2022-10-01T08:44:15;19.90;99.90
52555;DHT22;38455;52.710;6.502;2022-10-01T08:46:42;19.30;99.90
52555;DHT22;38455;52.710;6.502;2022-10-01T08:49:18;19.00;99.90
52555;DHT22;38455;52.710;6.502;2022-10-01T08:51:56;18.90;99.90
52555;DHT22;38455;52.710;6.502;2022-10-01T08:56:58;19.10;99.90
52555;DHT22;38455;52.710;6.502;2022-10-01T08:59:44;19.30;99.90
52555;DHT22;38455;52.710;6.502;2022-10-01T09:04:41;19.40;99.90
52555;DHT22;38455;52.710;6.502;2022-10-01T09:21:17;19.30;99.90
52555;DHT22;38455;52.710;6.502;2022-10-01T09:24:02;20.80;99.90
52555;DHT22;38455;52.710;6.502;2022-10-01T09:26:29;20.70;99.90
52555;DHT22;38455;52.710;6.502;2022-10-01T09:28:57;21.20;99.90
52555;DHT22;38455;52.710;6.502;2022-10-01T09:31:36;22.00;99.90
52555;DHT22;38455;52.710;6.502;2022-10-01T09:34:12;23.10;99.90
52555;DHT22;38455;52.710;6.502;2022-10-01T09:39:37;24.50;99.90
52555;DHT22;38455;52.710;6.502;2022-10-01T09:42:04;24.70;99.90
52555;DHT22;38455;52.710;6.502;2022-10-01T09:44:31;25.40;99.90
52555;DHT22;38455;52.710;6.502;2022-10-01T09:46:57;25.90;99.90
52555;DHT22;38455;52.710;6.502;2022-10-01T09:51:54;26.60;99.90
52555;DHT22;38455;52.710;6.502;2022-10-01T09:57:28;26.80;97.00
52555;DHT22;38455;52.710;6.502;2022-10-01T10:00:15;27.10;94.30
52555;DHT22;38455;52.710;6.502;2022-10-01T10:02:43;27.30;94.30
52555;DHT22;38455;52.710;6.502;2022-10-01T10:05:17;26.00;95.70
52555;DHT22;38455;52.710;6.502;2022-10-01T10:07:50;24.40;96.40
52555;DHT22;38455;52.710;6.502;2022-10-01T10:12:55;22.10;99.90
52555;DHT22;38455;52.710;6.502;2022-10-01T10:15:22;21.50;99.90
52555;DHT22;38455;52.710;6.502;2022-10-01T10:17:51;21.00;99.90
52555;DHT22;38455;52.710;6.502;2022-10-01T10:20:37;20.50;99.90
52555;DHT22;38455;52.710;6.502;2022-10-01T10:23:19;20.40;99.90
52555;DHT22;38455;52.710;6.502;2022-10-01T10:26:02;20.90;99.90
52555;DHT22;38455;52.710;6.502;2022-10-01T10:28:38;21.20;99.90
52555;DHT22;38455;52.710;6.502;2022-10-01T10:31:16;21.30;99.90
52555;DHT22;38455;52.710;6.502;2022-10-01T10:33:50;20.90;99.90
52555;DHT22;38455;52.710;6.502;2022-10-01T10:36:17;20.20;99.90
52555;DHT22;38455;52.710;6.502;2022-10-01T10:38:48;19.70;99.90
52555;DHT22;38455;52.710;6.502;2022-10-01T10:41:17;19.20;99.90
52555;DHT22;38455;52.710;6.502;2022-10-01T10:43:47;18.80;99.90
52555;DHT22;38455;52.710;6.502;2022-10-01T10:46:24;18.50;99.90
52555;DHT22;38455;52.710;6.502;2022-10-01T10:49:06;18.40;99.90
52555;DHT22;38455;52.710;6.502;2022-10-01T10:52:04;18.20;99.90
52555;DHT22;38455;52.710;6.502;2022-10-01T10:54:46;18.10;99.90
52555;DHT22;38455;52.710;6.502;2022-10-01T10:57:22;17.90;99.90
52555;DHT22;38455;52.710;6.502;2022-10-01T10:59:58;17.60;99.90
52555;DHT22;38455;52.710;6.502;2022-10-01T11:02:28;17.70;99.90
52555;DHT22;38455;52.710;6.502;2022-10-01T11:04:57;18.70;99.90
52555;DHT22;38455;52.710;6.502;2022-10-01T11:07:24;19.70;99.90
52555;DHT22;38455;52.710;6.502;2022-10-01T11:12:41;20.30;99.90
52555;DHT22;38455;52.710;6.502;2022-10-01T11:21:05;18.90;99.90
52555;DHT22;38455;52.710;6.502;2022-10-01T11:26:23;17.10;99.90
52555;DHT22;38455;52.710;6.502;2022-10-01T11:34:49;16.60;99.90
52555;DHT22;38455;52.710;6.502;2022-10-01T11:37:31;16.70;99.90
52555;DHT22;38455;52.710;6.502;2022-10-01T11:40:50;16.60;99.90
52555;DHT22;38455;52.710;6.502;2022-10-01T11:42:51;16.60;99.90
52555;DHT22;38455;52.710;6.502;2022-10-01T11:45:21;16.50;99.90
52555;DHT22;38455;52.710;6.502;2022-10-01T11:47:54;16.50;99.90
52555;DHT22;38455;52.710;6.502;2022-10-01T11:50:31;17.10;99.90
52555;DHT22;38455;52.710;6.502;2022-10-01T12:06:16;24.30;99.90
52555;DHT22;38455;52.710;6.502;2022-10-01T12:08:47;24.60;99.90
52555;DHT22;38455;52.710;6.502;2022-10-01T12:11:20;24.80;99.90
52555;DHT22;38455;52.710;6.502;2022-10-01T12:13:51;24.90;99.90
52555;DHT22;38455;52.710;6.502;2022-10-01T12:16:40;24.90;99.90
52555;DHT22;38455;52.710;6.502;2022-10-01T12:19:22;24.60;99.90
52555;DHT22;38455;52.710;6.502;2022-10-01T12:21:56;24.00;99.90
52555;DHT22;38455;52.710;6.502;2022-10-01T12:24:43;23.10;99.90
52555;DHT22;38455;52.710;6.502;2022-10-01T12:27:25;22.50;99.90
52555;DHT22;38455;52.710;6.502;2022-10-01T12:32:55;20.70;99.90
52555;DHT22;38455;52.710;6.502;2022-10-01T12:35:33;20.10;99.90
52555;DHT22;38455;52.710;6.502;2022-10-01T12:38:16;18.90;99.90
52555;DHT22;38455;52.710;6.502;2022-10-01T12:48:56;17.90;99.90
52555;DHT22;38455;52.710;6.502;2022-10-01T12:51:41;18.10;99.90
52555;DHT22;38455;52.710;6.502;2022-10-01T12:57:33;18.00;99.90
52555;DHT22;38455;52.710;6.502;2022-10-01T13:00:21;17.80;99.90
52555;DHT22;38455;52.710;6.502;2022-10-01T13:10:50;18.00;99.90
52555;DHT22;38455;52.710;6.502;2022-10-01T13:13:27;17.90;99.90
52555;DHT22;38455;52.710;6.502;2022-10-01T13:16:20;18.00;99.90
52555;DHT22;38455;52.710;6.502;2022-10-01T13:24:52;18.60;99.90
52555;DHT22;38455;52.710;6.502;2022-10-01T13:27:26;18.80;99.90
52555;DHT22;38455;52.710;6.502;2022-10-01T13:30:15;18.70;99.90
52555;DHT22;38455;52.710;6.502;2022-10-01T13:32:58;18.60;99.90
52555;DHT22;38455;52.710;6.502;2022-10-01T13:35:34;18.40;99.90
52555;DHT22;38455;52.710;6.502;2022-10-01T13:38:01;18.30;99.90
52555;DHT22;38455;52.710;6.502;2022-10-01T13:40:37;18.10;99.90
52555;DHT22;38455;52.710;6.502;2022-10-01T13:43:19;18.00;99.90
52555;DHT22;38455;52.710;6.502;2022-10-01T13:45:50;18.10;99.90
52555;DHT22;38455;52.710;6.502;2022-10-01T13:48:19;18.10;99.90
52555;DHT22;38455;52.710;6.502;2022-10-01T13:51:09;18.10;99.90
52555;DHT22;38455;52.710;6.502;2022-10-01T13:56:07;17.60;99.90
52555;DHT22;38455;52.710;6.502;2022-10-01T13:58:44;17.50;99.90
52555;DHT22;38455;52.710;6.502;2022-10-01T14:04:00;17.10;99.90
52555;DHT22;38455;52.710;6.502;2022-10-01T14:11:49;16.90;99.90
52555;DHT22;38455;52.710;6.502;2022-10-01T14:14:40;16.80;99.90
52555;DHT22;38455;52.710;6.502;2022-10-01T14:17:31;16.80;99.90
52555;DHT22;38455;52.710;6.502;2022-10-01T14:19:59;16.80;99.90
52555;DHT22;38455;52.710;6.502;2022-10-01T14:28:18;16.80;99.90
52555;DHT22;38455;52.710;6.502;2022-10-01T14:36:18;16.70;99.90
52555;DHT22;38455;52.710;6.502;2022-10-01T14:38:44;16.70;99.90
52555;DHT22;38455;52.710;6.502;2022-10-01T14:41:18;16.70;99.90
52555;DHT22;38455;52.710;6.502;2022-10-01T14:43:44;16.70;99.90
52555;DHT22;38455;52.710;6.502;2022-10-01T14:46:14;16.70;99.90
52555;DHT22;38455;52.710;6.502;2022-10-01T14:48:40;16.50;99.90
52555;DHT22;38455;52.710;6.502;2022-10-01T14:51:23;16.40;99.90
52555;DHT22;38455;52.710;6.502;2022-10-01T14:53:49;16.30;99.90
52555;DHT22;38455;52.710;6.502;2022-10-01T14:56:15;16.30;99.90
52555;DHT22;38455;52.710;6.502;2022-10-01T14:58:47;16.20;99.90
52555;DHT22;38455;52.710;6.502;2022-10-01T15:01:23;16.20;99.90
52555;DHT22;38455;52.710;6.502;2022-10-01T15:03:51;16.20;99.90
52555;DHT22;38455;52.710;6.502;2022-10-01T15:06:24;16.10;99.90
52555;DHT22;38455;52.710;6.502;2022-10-01T15:08:53;16.10;99.90
52555;DHT22;38455;52.710;6.502;2022-10-01T15:11:28;16.20;99.90
52555;DHT22;38455;52.710;6.502;2022-10-01T15:14:05;16.30;99.90
52555;DHT22;38455;52.710;6.502;2022-10-01T15:16:33;16.30;99.90
52555;DHT22;38455;52.710;6.502;2022-10-01T15:19:02;16.30;99.90
52555;DHT22;38455;52.710;6.502;2022-10-01T15:21:46;16.30;99.90
52555;DHT22;38455;52.710;6.502;2022-10-01T15:26:52;16.30;99.90
52555;DHT22;38455;52.710;6.502;2022-10-01T15:29:18;16.40;99.90
52555;DHT22;38455;52.710;6.502;2022-10-01T15:31:45;16.50;99.90
52555;DHT22;38455;52.710;6.502;2022-10-01T15:34:13;16.50;99.90
52555;DHT22;38455;52.710;6.502;2022-10-01T15:36:41;16.50;99.90
52555;DHT22;38455;52.710;6.502;2022-10-01T15:41:50;16.50;99.90
52555;DHT22;38455;52.710;6.502;2022-10-01T15:53:02;16.50;99.90
52555;DHT22;38455;52.710;6.502;2022-10-01T15:55:46;16.40;99.90
52555;DHT22;38455;52.710;6.502;2022-10-01T16:01:01;16.30;99.90
52555;DHT22;38455;52.710;6.502;2022-10-01T16:06:18;16.30;99.90
52555;DHT22;38455;52.710;6.502;2022-10-01T16:11:25;16.30;99.90
52555;DHT22;38455;52.710;6.502;2022-10-01T16:17:28;16.30;99.90
52555;DHT22;38455;52.710;6.502;2022-10-01T16:20:39;16.30;99.90
52555;DHT22;38455;52.710;6.502;2022-10-01T16:23:33;16.30;99.90
52555;DHT22;38455;52.710;6.502;2022-10-01T16:25:59;16.20;99.90
52555;DHT22;38455;52.710;6.502;2022-10-01T16:28:28;16.10;99.90
52555;DHT22;38455;52.710;6.502;2022-10-01T16:30:54;16.00;99.90
52555;DHT22;38455;52.710;6.502;2022-10-01T16:33:19;15.90;99.90
52555;DHT22;38455;52.710;6.502;2022-10-01T16:35:48;15.80;99.90
52555;DHT22;38455;52.710;6.502;2022-10-01T16:38:14;15.70;99.90
52555;DHT22;38455;52.710;6.502;2022-10-01T16:40:42;15.60;99.90
52555;DHT22;38455;52.710;6.502;2022-10-01T16:43:17;15.50;99.90
52555;DHT22;38455;52.710;6.502;2022-10-01T16:45:43;15.40;99.90
52555;DHT22;38455;52.710;6.502;2022-10-01T16:48:16;15.30;99.90
52555;DHT22;38455;52.710;6.502;2022-10-01T16:50:44;15.20;99.90
52555;DHT22;38455;52.710;6.502;2022-10-01T16:53:15;15.10;99.90
52555;DHT22;38455;52.710;6.502;2022-10-01T16:55:41;15.00;99.90
52555;DHT22;38455;52.710;6.502;2022-10-01T16:58:08;15.00;99.90
52555;DHT22;38455;52.710;6.502;2022-10-01T17:00:35;14.90;99.90
52555;DHT22;38455;52.710;6.502;2022-10-01T17:03:05;14.80;99.90
52555;DHT22;38455;52.710;6.502;2022-10-01T17:05:33;14.70;99.90
52555;DHT22;38455;52.710;6.502;2022-10-01T17:08:00;14.70;99.90
52555;DHT22;38455;52.710;6.502;2022-10-01T17:10:29;14.60;99.90
52555;DHT22;38455;52.710;6.502;2022-10-01T17:12:57;14.60;99.90
52555;DHT22;38455;52.710;6.502;2022-10-01T17:15:26;14.70;99.90
52555;DHT22;38455;52.710;6.502;2022-10-01T17:17:53;14.70;99.90
52555;DHT22;38455;52.710;6.502;2022-10-01T17:20:19;14.80;99.90
52555;DHT22;38455;52.710;6.502;2022-10-01T17:22:47;14.80;99.90
52555;DHT22;38455;52.710;6.502;2022-10-01T17:25:21;14.70;99.90
52555;DHT22;38455;52.710;6.502;2022-10-01T17:27:47;14.70;99.90
52555;DHT22;38455;52.710;6.502;2022-10-01T17:30:14;14.60;99.90
52555;DHT22;38455;52.710;6.502;2022-10-01T17:32:40;14.60;99.90
52555;DHT22;38455;52.710;6.502;2022-10-01T17:35:11;14.60;99.90
52555;DHT22;38455;52.710;6.502;2022-10-01T17:37:37;14.60;99.90
52555;DHT22;38455;52.710;6.502;2022-10-01T17:40:04;14.50;99.90
52555;DHT22;38455;52.710;6.502;2022-10-01T17:42:30;14.50;99.90
52555;DHT22;38455;52.710;6.502;2022-10-01T17:44:57;14.30;99.90
52555;DHT22;38455;52.710;6.502;2022-10-01T17:47:23;14.20;99.90
52555;DHT22;38455;52.710;6.502;2022-10-01T17:49:49;14.10;99.90
52555;DHT22;38455;52.710;6.502;2022-10-01T17:52:15;14.00;99.90
52555;DHT22;38455;52.710;6.502;2022-10-01T17:54:41;13.90;99.90
52555;DHT22;38455;52.710;6.502;2022-10-01T17:57:06;13.80;99.90
52555;DHT22;38455;52.710;6.502;2022-10-01T17:59:35;13.80;99.90
52555;DHT22;38455;52.710;6.502;2022-10-01T18:02:01;13.70;99.90
52555;DHT22;38455;52.710;6.502;2022-10-01T18:04:26;13.50;99.90
52555;DHT22;38455;52.710;6.502;2022-10-01T18:06:52;13.40;99.90
52555;DHT22;38455;52.710;6.502;2022-10-01T18:09:20;13.30;99.90
52555;DHT22;38455;52.710;6.502;2022-10-01T18:11:47;13.30;99.90
52555;DHT22;38455;52.710;6.502;2022-10-01T18:14:12;13.20;99.90
52555;DHT22;38455;52.710;6.502;2022-10-01T18:16:38;13.10;99.90
52555;DHT22;38455;52.710;6.502;2022-10-01T18:19:04;13.00;99.90
52555;DHT22;38455;52.710;6.502;2022-10-01T18:21:30;12.90;99.90
52555;DHT22;38455;52.710;6.502;2022-10-01T18:23:57;12.90;99.90